Time;durP1;ratioP1;P1;durP2;ratioP2;P2;SDS_P1;SDS_P2;PMS_P1;PMS_P2;Temp;Humidity;BMP_temperature;BMP_pressure;BME280_temperature;BME280_humidity;BME280_pressure;Samples;Min_cycle;Max_cycle;Signal;HPM_P1;HPM_P2
2022/12/26 00:00:10;;;;;;;189.35;105.82;;;;;;;-0.03;95.29;98624.00;10292076;28;20057;-57
2022/12/26 00:05:09;;;;;;;240.75;135.25;;;;;;;-0.06;95.65;98631.47;10294476;28;20081;-57
2022/12/26 00:10:09;;;;;;;297.23;169.73;;;;;;;-0.05;95.49;98638.34;10293669;28;20081;-57
2022/12/26 00:15:07;;;;;;;;;;;;;;;-0.06;95.54;98645.91;10295119;28;20757;-57
2022/12/26 00:20:07;;;;;;;274.65;153.65;;;;;;;-0.06;95.24;98651.91;10286598;28;20346;-57
2022/12/26 00:25:06;;;;;;;279.25;154.70;;;;;;;-0.08;95.48;98658.59;10284192;28;20088;-57
2022/12/26 00:30:05;;;;;;;;;;;;;;;-0.14;95.60;98655.69;10295082;28;20061;-57
2022/12/26 00:35:05;;;;;;;220.75;122.95;;;;;;;-0.18;95.59;98657.19;10293834;28;19952;-57
2022/12/26 00:40:04;;;;;;;199.95;115.00;;;;;;;-0.21;95.64;98664.66;10293012;28;20092;-57
2022/12/26 00:45:04;;;;;;;195.00;115.57;;;;;;;-0.23;95.89;98663.72;10293004;28;20069;-57
2022/12/26 00:50:03;;;;;;;179.32;106.68;;;;;;;-0.22;95.46;98659.50;10293220;28;20064;-57
2022/12/26 00:55:02;;;;;;;;;;;;;;;-0.27;95.28;98672.00;10291738;28;20069;-57
2022/12/26 01:00:01;;;;;;;171.20;95.72;;;;;;;-0.34;95.76;98687.75;10293423;28;19965;-57
2022/12/26 01:05:00;;;;;;;201.93;113.00;;;;;;;-0.40;95.66;98685.69;10291922;28;20041;-57
2022/12/26 01:09:59;;;;;;;178.02;102.32;;;;;;;-0.51;95.90;98691.88;10291940;28;20045;-57
2022/12/26 01:14:58;;;;;;;254.05;136.07;;;;;;;-0.61;96.32;98680.25;10292408;28;20032;-57
2022/12/26 01:19:57;;;;;;;138.10;79.00;;;;;;;-0.61;96.33;98685.34;10283941;28;20077;-57
2022/12/26 01:24:57;;;;;;;106.85;62.58;;;;;;;-0.63;95.89;98681.81;10253042;28;20034;-57
2022/12/26 01:29:56;;;;;;;111.95;64.32;;;;;;;-0.66;96.24;98681.66;10260757;28;20072;-57
2022/12/26 01:34:55;;;;;;;113.00;65.90;;;;;;;-0.63;95.65;98680.97;10292143;28;20113;-57
2022/12/26 01:39:54;;;;;;;107.60;60.80;;;;;;;-0.63;95.77;98686.06;10265901;28;20124;-57
2022/12/26 01:45:16;;;;;;;101.57;59.20;;;;;;;-0.63;96.17;98670.75;10250986;28;20042;-57
2022/12/26 01:50:37;;;;;;;140.15;81.05;;;;;;;-0.64;96.00;98663.91;10259559;28;20073;-57
2022/12/26 01:55:38;;;;;;;194.68;106.55;;;;;;;-0.67;95.60;98667.16;10290120;28;20072;-57
2022/12/26 02:00:37;;;;;;;181.23;102.35;;;;;;;-0.71;95.92;98643.97;10288282;28;20077;-57
2022/12/26 02:05:38;;;;;;;198.18;115.20;;;;;;;-0.70;96.07;98645.72;10291584;28;20068;-57
2022/12/26 02:11:06;;;;;;;194.90;113.43;;;;;;;-0.71;96.19;98636.31;10289434;28;20073;-57
2022/12/26 02:16:09;;;;;;;166.45;92.65;;;;;;;-0.80;96.09;98624.78;10284377;28;20074;-57
2022/12/26 02:22:02;;;;;;;144.50;81.93;;;;;;;-0.77;95.49;98644.47;10279091;28;20065;-57
2022/12/26 02:27:32;;;;;;;127.25;71.18;;;;;;;-0.77;96.17;98646.16;10254303;28;20085;-57
2022/12/26 02:32:49;;;;;;;130.85;72.95;;;;;;;-0.76;96.00;98640.28;10278668;28;20518;-57
2022/12/26 02:38:21;;;;;;;128.15;71.10;;;;;;;-0.76;96.37;98640.28;10289760;28;20088;-57
2022/12/26 02:43:39;;;;;;;120.90;67.68;;;;;;;-0.77;95.87;98635.97;10288807;28;20261;-57
2022/12/26 02:49:03;;;;;;;133.32;70.47;;;;;;;-0.77;96.39;98631.72;10289346;28;20084;-57
2022/12/26 03:21:36;;;;;;;155.55;83.00;;;;;;;-0.95;96.03;98654.50;10253665;28;20550;-57
2022/12/26 03:26:46;;;;;;;99.20;55.78;;;;;;;-1.02;96.46;98660.03;10282673;28;20064;-57
2022/12/26 03:31:45;;;;;;;83.28;47.72;;;;;;;-1.06;96.58;98658.09;10286885;28;20073;-57
2022/12/26 03:36:50;;;;;;;;;;;;;;;-1.21;96.16;98652.97;10289428;28;20478;-57
2022/12/26 04:21:01;;;;;;;118.20;66.18;;;;;;;-1.45;96.54;98634.53;10247412;28;20104;-57
2022/12/26 04:53:19;;;;;;;132.55;68.95;;;;;;;-1.51;97.12;98645.25;10293751;28;20080;-58
2022/12/26 04:58:18;;;;;;;195.15;100.63;;;;;;;-1.50;97.33;98651.19;10294388;28;20069;-57
2022/12/26 05:13:59;;;;;;;85.50;45.80;;;;;;;-1.60;97.27;98661.63;10292906;28;20060;-57
2022/12/26 05:29:33;;;;;;;61.85;30.73;;;;;;;-1.83;96.96;98665.28;10293104;28;20883;-57
2022/12/26 05:34:32;;;;;;;62.58;33.50;;;;;;;-1.87;96.87;98661.66;10289233;28;20521;-58
2022/12/26 05:39:30;;;;;;;71.63;40.15;;;;;;;-1.82;95.79;98665.41;10292113;28;20237;-57
2022/12/26 05:44:29;;;;;;;78.88;43.25;;;;;;;-1.83;96.41;98668.72;10292434;28;20033;-57
2022/12/26 05:49:29;;;;;;;68.10;38.53;;;;;;;-1.83;96.26;98670.38;10290829;28;20029;-57
2022/12/26 05:54:28;;;;;;;82.63;44.92;;;;;;;-1.85;96.54;98676.22;10286069;28;20068;-57
2022/12/26 05:59:27;;;;;;;96.93;49.03;;;;;;;-1.88;96.06;98677.72;10287848;28;20034;-57
2022/12/26 06:04:26;;;;;;;96.07;49.83;;;;;;;-2.00;95.92;98643.91;10286383;28;20837;-57
2022/12/26 06:09:25;;;;;;;161.25;77.60;;;;;;;-1.81;96.05;98671.34;10288408;28;20120;-57
2022/12/26 06:14:24;;;;;;;158.82;71.80;;;;;;;-1.79;96.37;98680.84;10283886;28;20037;-57
2022/12/26 06:19:23;;;;;;;155.48;72.70;;;;;;;-1.86;96.68;98679.56;10288264;28;20034;-57
2022/12/26 06:24:22;;;;;;;157.93;70.75;;;;;;;-1.73;96.74;98686.28;10284119;28;20551;-57
2022/12/26 06:29:21;;;;;;;160.45;74.68;;;;;;;-1.67;97.22;98690.91;10288608;28;20451;-57
2022/12/26 06:34:22;;;;;;;181.00;79.22;;;;;;;-1.62;97.09;98689.50;10286087;28;20137;-57
2022/12/26 06:39:23;;;;;;;209.90;90.72;;;;;;;-1.53;97.12;98690.09;10300430;28;20091;-57
2022/12/26 06:44:22;;;;;;;318.08;109.15;;;;;;;-1.41;97.14;98704.34;10287269;28;20099;-57
2022/12/26 06:49:21;;;;;;;307.65;106.60;;;;;;;-1.26;96.89;98708.72;10286945;28;20837;-57
2022/12/26 06:54:20;;;;;;;399.48;119.85;;;;;;;-1.11;97.40;98705.31;10286802;28;20069;-57
2022/12/26 06:59:19;;;;;;;428.20;138.50;;;;;;;-1.17;98.54;98712.59;10285030;28;20038;-57
2022/12/26 07:04:18;;;;;;;256.00;112.75;;;;;;;-1.14;99.04;98700.03;10287376;28;20083;-57
2022/12/26 07:09:18;;;;;;;277.23;123.10;;;;;;;-0.97;99.21;98698.50;10283150;28;20042;-57
2022/12/26 07:14:16;;;;;;;290.13;118.72;;;;;;;-0.82;99.11;98694.31;10216767;28;20104;-57
2022/12/26 07:19:15;;;;;;;376.08;143.05;;;;;;;-0.64;99.04;98700.47;10283722;28;20059;-57
2022/12/26 07:24:17;;;;;;;351.85;126.63;;;;;;;-0.52;98.38;98697.75;10286014;28;20073;-57
2022/12/26 07:29:17;;;;;;;404.60;145.50;;;;;;;-0.52;98.67;98700.31;10282622;28;20076;-57
2022/12/26 07:34:15;;;;;;;360.00;140.80;;;;;;;-0.41;98.18;98704.34;10284642;28;20057;-57
2022/12/26 07:39:14;;;;;;;391.73;153.25;;;;;;;-0.44;98.32;98701.63;10283309;28;20048;-57
2022/12/26 07:44:13;;;;;;;330.23;129.98;;;;;;;-0.40;98.02;98708.66;10286115;28;20467;-57
2022/12/26 07:49:13;;;;;;;259.58;117.72;;;;;;;-0.50;97.81;98693.63;10282569;28;20038;-57
2022/12/26 07:54:11;;;;;;;;;;;;;;;-0.47;98.42;98688.69;10286674;28;20761;-57
2022/12/26 07:59:15;;;;;;;222.88;98.53;;;;;;;-0.44;98.14;98693.09;10258018;28;20663;-57
2022/12/26 08:04:14;;;;;;;208.98;94.82;;;;;;;-0.18;97.77;98684.38;10284639;28;20141;-57
2022/12/26 08:09:14;;;;;;;179.52;88.90;;;;;;;-0.22;97.64;98690.97;10284546;28;20057;-57
2022/12/26 08:14:15;;;;;;;200.07;86.82;;;;;;;-0.06;97.55;98686.75;10272330;28;20084;-58
2022/12/26 08:19:14;;;;;;;172.63;73.35;;;;;;;-0.04;96.87;98691.13;10285937;28;20073;-57
2022/12/26 08:24:14;;;;;;;159.73;70.93;;;;;;;-0.10;96.75;98674.59;10290400;28;20081;-57
2022/12/26 08:29:13;;;;;;;135.77;69.70;;;;;;;-0.02;96.81;98676.78;10291582;28;20077;-57
2022/12/26 08:34:12;;;;;;;145.68;78.38;;;;;;;0.14;96.87;98672.50;10291332;28;20088;-57
2022/12/26 08:39:11;;;;;;;148.48;78.07;;;;;;;0.26;97.04;98665.50;10292312;28;20026;-57
2022/12/26 08:44:12;;;;;;;143.07;76.40;;;;;;;0.44;97.09;98656.28;10279657;28;20042;-57
2022/12/26 08:49:11;;;;;;;128.15;69.68;;;;;;;0.64;96.89;98666.72;10290869;28;20073;-57
2022/12/26 08:54:10;;;;;;;108.03;63.47;;;;;;;0.78;96.76;98667.41;10291135;28;20503;-58
2022/12/26 08:59:09;;;;;;;104.18;56.72;;;;;;;0.81;97.62;98657.34;10284480;28;20052;-59
2022/12/26 09:04:08;;;;;;;85.00;46.28;;;;;;;0.83;97.40;98659.19;10267387;28;20096;-58
2022/12/26 09:09:10;;;;;;;94.47;50.83;;;;;;;0.79;97.39;98643.63;10279152;28;20145;-57
2022/12/26 09:14:10;;;;;;;134.23;68.82;;;;;;;1.00;97.71;98642.16;10280584;28;20072;-57
2022/12/26 09:19:11;;;;;;;95.88;52.80;;;;;;;1.30;97.38;98655.59;10330104;28;20910;-57
2022/12/26 09:24:13;;;;;;;80.68;50.38;;;;;;;1.51;97.34;98639.56;10290377;28;20065;-57
2022/12/26 09:29:12;;;;;;;95.10;57.08;;;;;;;1.79;96.90;98630.69;10285368;28;20454;-58
2022/12/26 09:34:11;;;;;;;;;;;;;;;1.97;96.80;98628.97;10290740;28;20072;-57
2022/12/26 09:39:10;;;;;;;90.63;58.30;;;;;;;2.24;96.76;98613.13;10287447;28;19960;-58
2022/12/26 09:44:12;;;;;;;108.18;72.60;;;;;;;2.54;96.76;98616.19;10287897;28;20072;-57
2022/12/26 09:49:15;;;;;;;106.18;67.22;;;;;;;2.85;96.65;98613.28;10270342;28;20887;-58
2022/12/26 09:54:39;;;;;;;103.63;68.40;;;;;;;3.15;95.88;98597.47;10277898;28;20456;-58
2022/12/26 09:59:53;;;;;;;122.32;81.10;;;;;;;3.46;95.64;98586.75;10285618;28;20080;-58
2022/12/26 10:04:53;;;;;;;107.40;73.22;;;;;;;3.76;94.32;98579.41;10287393;28;20109;-57
2022/12/26 10:10:22;;;;;;;116.40;77.40;;;;;;;3.98;94.10;98572.53;10283126;28;20530;-58
2022/12/26 10:15:48;;;;;;;124.70;89.57;;;;;;;4.21;93.03;98565.69;10311631;28;20106;-57
2022/12/26 10:21:02;;;;;;;147.27;99.43;;;;;;;4.43;91.91;98547.66;10268851;28;20150;-57
2022/12/26 10:26:17;;;;;;;109.45;78.45;;;;;;;4.71;91.47;98544.38;10279024;28;20076;-57
2022/12/26 10:31:35;;;;;;;119.07;82.40;;;;;;;5.00;90.79;98541.97;10261208;28;20054;-57
2022/12/26 10:36:44;;;;;;;50.08;37.40;;;;;;;5.11;90.53;98525.19;10284411;28;20073;-57
2022/12/26 10:41:50;;;;;;;54.50;36.88;;;;;;;5.42;90.11;98533.88;10283123;28;20521;-57
2022/12/26 10:47:25;;;;;;;52.60;37.38;;;;;;;5.71;89.65;98521.91;10275253;28;20523;-57
2022/12/26 10:52:30;;;;;;;36.42;25.17;;;;;;;5.92;88.86;98524.25;10268464;28;20852;-57
2022/12/26 10:57:33;;;;;;;45.60;29.15;;;;;;;6.12;87.36;98524.88;10288860;28;20061;-57
2022/12/26 11:02:32;;;;;;;38.40;27.42;;;;;;;6.36;86.35;98513.50;10288328;28;20483;-57
2022/12/26 11:07:35;;;;;;;43.25;32.28;;;;;;;6.53;86.40;98509.66;10265254;28;20403;-57
2022/12/26 11:13:03;;;;;;;64.78;45.75;;;;;;;6.77;85.12;98501.72;10252717;28;20084;-57
2022/12/26 11:18:19;;;;;;;71.20;52.85;;;;;;;7.03;83.48;98488.63;10287163;28;20077;-58
2022/12/26 11:23:22;;;;;;;89.47;67.93;;;;;;;7.18;82.48;98472.63;10289009;28;20069;-57
2022/12/26 11:28:29;;;;;;;112.43;84.32;;;;;;;7.49;81.69;98471.66;10287876;28;20076;-57
2022/12/26 11:33:41;;;;;;;136.43;101.03;;;;;;;7.72;80.23;98458.38;10287452;28;20058;-57
2022/12/26 11:38:46;;;;;;;144.73;109.43;;;;;;;8.09;77.98;98447.97;10285876;28;20058;-57
2022/12/26 11:43:46;;;;;;;148.05;111.22;;;;;;;8.41;77.78;98445.13;10288064;28;20476;-57
2022/12/26 11:48:50;;;;;;;123.13;92.28;;;;;;;8.75;75.20;98453.50;10286335;28;20074;-57
2022/12/26 11:53:48;;;;;;;105.57;79.60;;;;;;;9.09;74.30;98449.75;10287219;28;20053;-57
2022/12/26 11:58:47;;;;;;;101.43;74.38;;;;;;;9.42;72.40;98453.75;10285212;28;20029;-58
2022/12/26 12:03:47;;;;;;;84.28;60.47;;;;;;;9.65;70.33;98443.72;10268629;28;20034;-57
2022/12/26 12:09:44;;;;;;;84.30;64.63;;;;;;;9.97;70.13;98441.53;10247676;28;20089;-58
2022/12/26 12:15:02;;;;;;;96.80;72.05;;;;;;;10.11;69.84;98423.53;10185663;28;20075;-57
2022/12/26 12:20:25;;;;;;;121.82;88.90;;;;;;;10.33;67.45;98423.78;10269597;28;20073;-64
2022/12/26 12:25:34;;;;;;;103.97;80.07;;;;;;;10.58;67.23;98407.59;10285358;28;20077;-57
2022/12/26 12:30:44;;;;;;;103.15;75.50;;;;;;;10.77;66.31;98405.16;10287338;28;20070;-58
2022/12/26 12:35:48;;;;;;;85.32;65.90;;;;;;;10.97;65.80;98400.19;10284679;28;20079;-58
2022/12/26 12:41:15;;;;;;;105.82;75.82;;;;;;;11.15;65.23;98395.13;10286083;28;20436;-58
2022/12/26 12:46:32;;;;;;;99.38;65.13;;;;;;;11.40;62.96;98396.13;10286337;28;20073;-57
2022/12/26 12:51:55;;;;;;;87.90;63.58;;;;;;;11.63;61.28;98395.41;10286972;28;20068;-57
2022/12/26 12:57:24;;;;;;;40.63;30.35;;;;;;;11.84;58.15;98389.44;10285721;28;20065;-58
2022/12/26 13:02:38;;;;;;;36.22;24.20;;;;;;;12.10;57.92;98398.19;10277028;28;20483;-58
2022/12/26 13:07:43;;;;;;;15.68;11.18;;;;;;;12.28;56.98;98400.03;10290257;28;20483;-58
2022/12/26 13:12:46;;;;;;;24.67;17.40;;;;;;;12.45;57.87;98400.06;10290641;28;20085;-58
2022/12/26 13:18:01;;;;;;;25.85;17.55;;;;;;;12.49;57.88;98406.16;10291892;28;20072;-58
2022/12/26 13:28:31;;;;;;;25.13;17.42;;;;;;;12.54;55.96;98399.22;10293524;28;20788;-58
2022/12/26 13:33:31;;;;;;;37.55;24.15;;;;;;;12.72;55.83;98411.41;10285818;28;20772;-58
2022/12/26 13:39:00;;;;;;;33.65;20.92;;;;;;;12.76;56.26;98409.66;10279186;28;20104;-58
2022/12/26 13:44:05;;;;;;;27.73;18.40;;;;;;;12.71;55.90;98412.25;10276057;28;20084;-58
2022/12/26 13:49:24;;;;;;;31.30;22.42;;;;;;;12.63;56.02;98409.63;10292427;28;20072;-58
2022/12/26 13:54:25;;;;;;;33.90;23.20;;;;;;;12.43;56.04;98404.38;10291173;28;20496;-58
2022/12/26 13:59:35;;;;;;;41.47;27.50;;;;;;;12.27;56.30;98413.00;10291050;28;20300;-58
2022/12/26 14:05:00;;;;;;;34.50;25.02;;;;;;;12.08;55.73;98423.34;10287487;28;20464;-58
2022/12/26 14:10:03;;;;;;;40.22;26.13;;;;;;;11.86;55.44;98414.59;10290268;28;20092;-58
2022/12/26 14:15:19;;;;;;;35.75;25.35;;;;;;;11.68;55.29;98430.09;10290916;28;20066;-58
2022/12/26 14:20:55;;;;;;;42.65;31.50;;;;;;;11.38;55.88;98431.63;10289474;28;20065;-58
2022/12/26 14:26:03;;;;;;;42.58;30.02;;;;;;;11.12;56.95;98431.47;10288748;28;20069;-57
2022/12/26 14:31:25;;;;;;;61.60;41.35;;;;;;;10.80;57.51;98438.97;10289040;28;20080;-58
2022/12/26 14:36:35;;;;;;;62.05;47.03;;;;;;;10.46;58.40;98441.22;10290594;28;20065;-58
2022/12/26 14:47:44;;;;;;;77.82;53.03;;;;;;;9.87;61.31;98444.88;10264380;28;20074;-58
2022/12/26 14:52:43;;;;;;;79.30;55.05;;;;;;;9.54;61.84;98442.69;10288672;28;20491;-58
2022/12/26 14:57:46;;;;;;;;;;;;;;;9.25;63.09;98448.25;10290016;28;20475;-58
2022/12/26 15:03:07;;;;;;;89.85;61.53;;;;;;;9.04;64.18;98447.94;10272320;28;20427;-58
2022/12/26 15:08:57;;;;;;;78.88;53.45;;;;;;;8.70;64.74;98442.19;10266280;28;20069;-57
2022/12/26 15:13:59;;;;;;;60.83;41.85;;;;;;;8.41;65.52;98434.78;10285815;28;20084;-58
2022/12/26 15:19:07;;;;;;;47.72;31.42;;;;;;;8.21;66.11;98433.53;10288824;28;20076;-57
2022/12/26 15:24:24;;;;;;;38.15;25.52;;;;;;;8.07;65.98;98433.28;10287984;28;20069;-58
2022/12/26 15:29:37;;;;;;;40.75;27.75;;;;;;;7.96;66.76;98435.63;10287096;28;20058;-57
2022/12/26 15:35:00;;;;;;;38.42;26.88;;;;;;;7.83;67.30;98441.41;10287641;28;20057;-58
2022/12/26 15:40:13;;;;;;;43.22;28.20;;;;;;;7.63;67.88;98444.41;10246882;28;20062;-58
2022/12/26 15:45:36;;;;;;;44.55;28.83;;;;;;;7.44;68.58;98444.84;10246384;28;20090;-57
2022/12/26 15:50:56;;;;;;;54.63;36.70;;;;;;;7.24;69.13;98437.50;10275509;28;20080;-57
2022/12/26 15:56:32;;;;;;;39.88;26.20;;;;;;;7.11;70.14;98434.59;10288157;28;20484;-57
2022/12/26 16:01:39;;;;;;;47.85;30.40;;;;;;;7.01;70.95;98451.56;10265202;28;20070;-57
2022/12/26 16:06:54;;;;;;;129.10;81.40;;;;;;;6.87;71.62;98465.84;10255578;28;20510;-57
2022/12/26 16:11:56;;;;;;;148.90;94.65;;;;;;;6.66;72.50;98467.03;10263517;28;20129;-57
2022/12/26 16:17:29;;;;;;;93.05;60.58;;;;;;;6.49;72.85;98463.13;10267553;28;20121;-57
2022/12/26 16:22:46;;;;;;;108.03;75.18;;;;;;;6.33;73.23;98456.72;10262698;28;20133;-58
2022/12/26 16:27:48;;;;;;;81.90;55.45;;;;;;;6.15;73.43;98459.66;10263126;28;20057;-57
2022/12/26 16:32:48;;;;;;;100.75;68.97;;;;;;;6.02;74.55;98476.44;10263027;28;20057;-57
2022/12/26 16:37:48;;;;;;;157.80;105.20;;;;;;;5.71;76.71;98474.69;10272882;28;20105;-57
2022/12/26 16:43:20;;;;;;;269.73;165.23;;;;;;;5.48;77.70;98482.59;10270054;28;20117;-57
2022/12/26 16:48:22;;;;;;;35.83;22.92;;;;;;;5.35;80.21;98488.19;10273653;28;20456;-58
2022/12/26 16:53:43;;;;;;;146.93;100.07;;;;;;;5.47;79.42;98491.16;10268507;28;20786;-58
2022/12/26 16:58:43;;;;;;;140.75;92.07;;;;;;;5.43;78.77;98496.16;10267123;28;20066;-57
2022/12/26 17:03:53;;;;;;;142.98;94.90;;;;;;;5.38;79.23;98498.56;10265966;28;20060;-59
2022/12/26 17:08:53;;;;;;;145.75;95.38;;;;;;;5.27;79.47;98503.38;10266415;28;20105;-57
2022/12/26 17:13:53;;;;;;;172.10;115.75;;;;;;;5.17;79.81;98503.91;10271335;28;20181;-57
2022/12/26 17:18:54;;;;;;;171.93;111.53;;;;;;;5.02;79.98;98512.00;10270512;28;20062;-57
2022/12/26 17:24:08;;;;;;;168.75;115.10;;;;;;;4.94;80.09;98518.59;10270937;28;20610;-57
2022/12/26 17:29:50;;;;;;;153.88;104.28;;;;;;;4.78;81.13;98503.44;10275605;28;20450;-57
2022/12/26 17:34:49;;;;;;;135.23;93.32;;;;;;;4.63;81.60;98473.81;10274838;28;20113;-57
2022/12/26 17:39:54;;;;;;;178.02;123.43;;;;;;;4.42;82.66;98476.53;10273890;28;20112;-57
2022/12/26 17:44:55;;;;;;;158.00;105.70;;;;;;;4.45;82.84;98465.47;10269729;28;20108;-57
2022/12/26 17:49:55;;;;;;;167.90;111.15;;;;;;;4.35;83.70;98455.72;10269675;28;20124;-57
2022/12/26 17:54:56;;;;;;;246.70;151.88;;;;;;;4.25;84.21;98469.94;10272740;28;20097;-57
2022/12/26 17:59:56;;;;;;;274.77;175.88;;;;;;;4.11;85.08;98474.56;10272046;28;20110;-57
2022/12/26 18:04:55;;;;;;;272.95;184.23;;;;;;;4.06;85.00;98460.69;10270914;28;20112;-57
2022/12/26 18:09:56;;;;;;;281.67;191.20;;;;;;;4.03;85.12;98460.56;10269822;28;20117;-57
2022/12/26 18:14:56;;;;;;;272.83;180.20;;;;;;;3.96;85.12;98444.06;10260676;28;20054;-57
2022/12/26 18:19:56;;;;;;;270.98;175.43;;;;;;;3.92;85.51;98431.94;10269340;28;20153;-57
2022/12/26 18:24:55;;;;;;;312.80;207.35;;;;;;;3.82;85.89;98440.13;10265340;28;20124;-57
2022/12/26 18:29:54;;;;;;;297.42;197.63;;;;;;;3.79;85.80;98440.00;10262891;28;20061;-57
2022/12/26 18:34:53;;;;;;;283.98;180.60;;;;;;;3.66;86.34;98428.44;10265400;28;20499;-57
2022/12/26 18:39:52;;;;;;;228.70;151.07;;;;;;;3.50;87.50;98439.81;10281239;28;20160;-57
2022/12/26 18:44:51;;;;;;;209.20;134.02;;;;;;;3.53;87.43;98431.34;10280414;28;20061;-57
2022/12/26 18:49:50;;;;;;;295.33;194.48;;;;;;;3.46;87.80;98444.75;10284738;28;20037;-55
2022/12/26 18:54:49;;;;;;;515.97;354.38;;;;;;;3.34;88.65;98434.91;10268534;28;20042;-57
2022/12/26 18:59:48;;;;;;;322.48;208.77;;;;;;;3.30;88.54;98426.22;10284606;28;20128;-56
2022/12/26 19:04:48;;;;;;;298.42;197.75;;;;;;;3.31;88.91;98427.97;10276217;28;20033;-56
2022/12/26 19:09:49;;;;;;;279.10;186.13;;;;;;;3.25;88.44;98419.16;10283748;28;20080;-58
2022/12/26 19:14:48;;;;;;;307.42;206.23;;;;;;;3.17;89.12;98417.19;10285305;28;20064;-57
2022/12/26 19:19:47;;;;;;;267.98;164.32;;;;;;;2.89;90.29;98432.31;10281490;28;20076;-55
2022/12/26 19:24:46;;;;;;;281.77;182.68;;;;;;;2.85;90.18;98425.28;10283612;28;20125;-56
2022/12/26 19:29:45;;;;;;;297.30;189.10;;;;;;;2.84;89.91;98418.41;10280787;28;20052;-56
2022/12/26 19:34:44;;;;;;;299.17;194.30;;;;;;;2.77;89.94;98425.00;10279610;28;20563;-55
2022/12/26 19:39:43;;;;;;;299.48;202.15;;;;;;;2.65;90.90;98417.66;10269002;28;20524;-56
2022/12/26 19:44:43;;;;;;;269.23;171.48;;;;;;;2.55;90.63;98401.03;10253422;28;20128;-56
2022/12/26 19:49:42;;;;;;;244.52;160.05;;;;;;;2.61;91.20;98428.63;10279090;28;20121;-56
2022/12/26 19:54:41;;;;;;;;;;;;;;;2.62;91.02;98425.22;10277007;28;20547;-56
2022/12/26 19:59:40;;;;;;;331.95;216.85;;;;;;;2.34;93.21;98405.28;10274218;28;20777;-55
2022/12/26 20:04:39;;;;;;;355.70;232.25;;;;;;;2.30;93.22;98427.34;10268989;28;20030;-55
2022/12/26 20:09:38;;;;;;;261.25;170.93;;;;;;;2.27;94.26;98426.31;10272410;28;20056;-56
2022/12/26 20:14:37;;;;;;;219.70;138.48;;;;;;;2.37;93.88;98425.88;10278710;28;20073;-56
2022/12/26 20:19:36;;;;;;;224.10;141.93;;;;;;;2.49;93.51;98423.84;10286856;28;20050;-56
2022/12/26 20:24:35;;;;;;;244.10;154.38;;;;;;;2.56;93.25;98417.31;10279402;28;20676;-56
2022/12/26 20:29:34;;;;;;;227.70;143.10;;;;;;;2.52;93.55;98423.97;10285038;28;20037;-55
2022/12/26 20:34:33;;;;;;;226.05;148.82;;;;;;;2.49;94.09;98405.94;10285796;28;20048;-56
2022/12/26 20:39:31;;;;;;;283.65;182.32;;;;;;;2.54;93.59;98409.53;10277835;28;20467;-55
2022/12/26 20:44:30;;;;;;;239.88;157.43;;;;;;;2.51;93.34;98406.88;10283989;28;20778;-56
2022/12/26 20:49:29;;;;;;;206.88;131.85;;;;;;;2.49;93.28;98423.84;10263530;28;20053;-56
2022/12/26 20:54:28;;;;;;;209.52;132.15;;;;;;;2.48;93.47;98406.72;10281210;28;20580;-55
2022/12/26 20:59:27;;;;;;;184.68;120.18;;;;;;;2.62;93.01;98398.72;10285231;28;20488;-56
2022/12/26 21:04:26;;;;;;;199.63;129.55;;;;;;;2.63;92.51;98400.47;10286667;28;20044;-58
2022/12/26 21:09:25;;;;;;;185.60;121.63;;;;;;;2.58;92.71;98406.31;10248968;28;1115392;-57
2022/12/26 21:14:24;;;;;;;181.30;117.88;;;;;;;2.57;92.87;98406.22;10287158;28;20073;-58
2022/12/26 21:19:25;;;;;;;205.02;125.60;;;;;;;2.52;92.64;98392.38;10276397;28;20041;-58
2022/12/26 21:24:27;;;;;;;209.32;134.07;;;;;;;2.38;92.86;98400.34;10278815;28;20551;-58
2022/12/26 21:29:29;;;;;;;243.88;155.52;;;;;;;2.34;92.95;98390.78;10280650;28;20070;-58
2022/12/26 21:34:30;;;;;;;282.83;175.80;;;;;;;2.28;93.53;98394.78;10284699;28;20121;-58
2022/12/26 21:39:30;;;;;;;230.05;146.07;;;;;;;2.27;93.24;98385.34;10279855;28;20526;-58
2022/12/26 21:44:28;;;;;;;201.13;129.55;;;;;;;2.28;93.29;98392.25;10249999;28;20125;-55
2022/12/26 21:49:27;;;;;;;213.82;130.98;;;;;;;2.29;93.14;98396.53;10248847;28;20030;-55
2022/12/26 21:59:56;;;;;;;203.30;114.22;;;;;;;2.31;94.13;98371.88;10290528;28;20077;-55
2022/12/26 22:04:55;;;;;;;191.38;121.82;;;;;;;2.25;94.92;98379.28;10286457;28;20537;-55
2022/12/26 22:09:54;;;;;;;196.57;126.05;;;;;;;2.27;94.64;98364.84;10286773;28;20113;-55
2022/12/26 22:14:53;;;;;;;192.82;121.38;;;;;;;2.24;94.48;98370.72;10281754;28;20066;-55
2022/12/26 22:19:52;;;;;;;193.25;115.57;;;;;;;2.27;94.16;98359.75;10288174;28;20470;-55
2022/12/26 22:24:51;;;;;;;169.10;104.30;;;;;;;2.22;93.72;98333.06;10287050;28;20077;-58
2022/12/26 22:29:50;;;;;;;195.95;118.47;;;;;;;2.35;93.61;98364.38;10286944;28;20113;-58
2022/12/26 22:34:49;;;;;;;264.40;150.57;;;;;;;2.28;93.77;98374.31;10287345;28;20068;-58
2022/12/26 22:39:48;;;;;;;368.05;207.65;;;;;;;2.33;93.41;98370.25;10287259;28;20067;-57
2022/12/26 22:44:47;;;;;;;230.18;130.25;;;;;;;2.28;93.15;98367.50;10275698;28;20116;-58
2022/12/26 22:49:46;;;;;;;240.45;143.82;;;;;;;2.26;93.48;98381.06;10267462;28;20032;-57
2022/12/26 22:54:45;;;;;;;225.38;133.52;;;;;;;2.23;93.36;98375.78;10274224;28;20742;-58
2022/12/26 22:59:44;;;;;;;208.98;130.55;;;;;;;2.18;93.29;98375.59;10272584;28;20069;-58
2022/12/26 23:04:43;;;;;;;203.35;129.43;;;;;;;1.75;94.55;98313.22;10276011;28;20029;-57
2022/12/26 23:09:42;;;;;;;185.68;122.28;;;;;;;2.05;94.80;98356.28;10274111;28;20100;-58
2022/12/26 23:14:41;;;;;;;154.32;95.45;;;;;;;2.18;94.35;98349.97;10272584;28;20069;-58
2022/12/26 23:25:10;;;;;;;156.77;100.53;;;;;;;2.34;94.19;98338.69;10272505;28;20117;-58
2022/12/26 23:30:18;;;;;;;146.18;94.00;;;;;;;2.30;93.82;98329.13;10245593;28;20066;-58
2022/12/26 23:35:19;;;;;;;164.80;105.47;;;;;;;2.36;94.00;98321.69;10269039;28;20069;-58
2022/12/26 23:40:19;;;;;;;139.43;86.28;;;;;;;2.23;93.85;98317.78;10282327;28;20076;-58
2022/12/26 23:45:18;;;;;;;146.32;90.28;;;;;;;2.22;93.91;98322.84;10276607;28;20109;-58
2022/12/26 23:50:17;;;;;;;134.98;85.95;;;;;;;2.11;93.80;98330.06;10282543;28;20072;-58
2022/12/26 23:55:16;;;;;;;124.80;75.50;;;;;;;2.19;94.11;98332.97;10284518;28;20509;-58
